Time;durP1;ratioP1;P1;durP2;ratioP2;P2;SDS_P1;SDS_P2;PMS_P1;PMS_P2;Temp;Humidity;BMP_temperature;BMP_pressure;BME280_temperature;BME280_humidity;BME280_pressure;Samples;Min_cycle;Max_cycle;Signal;HPM_P1;HPM_P2
2022/07/11 00:02:01;;;;;;;1.27;0.50;;;;;;;16.17;90.32;99372.78;4992247;28;20379;-65
2022/07/11 00:04:27;;;;;;;1.15;0.65;;;;;;;16.17;90.36;99372.78;4983975;28;20025;-65
2022/07/11 00:06:52;;;;;;;2.63;0.60;;;;;;;16.16;90.27;99375.72;4990912;28;20026;-65
2022/07/11 00:09:17;;;;;;;2.22;0.95;;;;;;;16.11;90.88;99372.84;4982819;28;20044;-65
2022/07/11 00:11:43;;;;;;;2.78;0.90;;;;;;;16.10;91.70;99371.19;4987855;28;20030;-65
2022/07/11 00:14:08;;;;;;;1.92;0.60;;;;;;;16.04;94.17;99369.38;4988488;28;20040;-64
2022/07/11 00:16:34;;;;;;;1.20;0.70;;;;;;;16.01;95.10;99378.84;4982028;28;20478;-65
2022/07/11 00:18:59;;;;;;;0.90;0.80;;;;;;;15.99;94.26;99373.59;4986280;28;20026;-65
2022/07/11 00:21:25;;;;;;;2.22;0.90;;;;;;;15.93;95.41;99371.78;4991220;28;20049;-65
2022/07/11 00:23:50;;;;;;;1.92;1.02;;;;;;;15.91;96.75;99365.69;4991176;28;20109;-65
2022/07/11 00:26:15;;;;;;;3.25;0.60;;;;;;;15.95;95.96;99360.63;4988765;28;20030;-65
2022/07/11 00:28:41;;;;;;;2.22;0.98;;;;;;;15.93;95.13;99366.31;4991659;28;20551;-65
2022/07/11 00:31:08;;;;;;;2.00;1.02;;;;;;;15.92;94.64;99359.16;4991438;28;20061;-65
2022/07/11 00:33:33;;;;;;;2.85;1.00;;;;;;;15.90;96.37;99371.38;4985526;28;20474;-65
2022/07/11 00:35:59;;;;;;;1.20;0.77;;;;;;;15.90;97.98;99363.19;4991995;28;20084;-65
2022/07/11 00:38:24;;;;;;;1.02;0.68;;;;;;;15.89;96.96;99370.53;4988531;28;20105;-65
2022/07/11 00:40:49;;;;;;;2.10;0.90;;;;;;;15.88;98.12;99363.41;4993214;28;20085;-65
2022/07/11 00:43:19;;;;;;;0.80;0.68;;;;;;;15.90;99.30;99358.59;4993256;28;20026;-65
2022/07/11 00:45:48;;;;;;;1.95;0.80;;;;;;;15.92;98.47;99367.34;4992114;28;20470;-65
2022/07/11 00:48:13;;;;;;;2.80;0.80;;;;;;;15.92;98.21;99366.53;4988230;28;20034;-65
2022/07/11 00:50:39;;;;;;;4.40;1.15;;;;;;;15.95;96.57;99355.16;4993089;28;20065;-65
2022/07/11 00:53:04;;;;;;;1.50;0.90;;;;;;;15.95;96.53;99355.97;4991116;28;20088;-65
2022/07/11 00:55:29;;;;;;;2.38;1.00;;;;;;;16.02;94.92;99350.47;4989026;28;20022;-65
2022/07/11 00:57:55;;;;;;;1.98;1.10;;;;;;;15.99;96.06;99346.28;4987069;28;20077;-65
2022/07/11 01:00:21;;;;;;;2.65;1.23;;;;;;;15.96;97.58;99344.03;4992276;28;20022;-65
2022/07/11 01:02:46;;;;;;;3.10;1.10;;;;;;;15.90;97.67;99339.47;4992571;28;20034;-65
2022/07/11 01:05:11;;;;;;;3.75;1.33;;;;;;;15.95;98.02;99341.50;4987960;28;20188;-65
2022/07/11 01:07:38;;;;;;;2.97;1.10;;;;;;;15.91;98.64;99345.75;4989641;28;20445;-65
2022/07/11 01:10:04;;;;;;;1.38;1.08;;;;;;;15.85;99.47;99339.31;4988161;28;20390;-65
2022/07/11 01:12:30;;;;;;;2.35;1.38;;;;;;;15.82;100.00;99342.47;4992827;28;20033;-65
2022/07/11 01:14:59;;;;;;;1.90;1.02;;;;;;;15.73;100.00;99330.19;4990457;28;20488;-65
2022/07/11 01:17:24;;;;;;;1.70;1.30;;;;;;;15.81;100.00;99335.34;4988163;28;20064;-65
2022/07/11 01:19:49;;;;;;;1.85;1.17;;;;;;;15.82;100.00;99341.63;4986028;28;20041;-65
2022/07/11 01:22:17;;;;;;;1.50;1.10;;;;;;;15.85;100.00;99336.59;4992614;28;20030;-65
2022/07/11 01:24:44;;;;;;;3.08;1.40;;;;;;;15.82;100.00;99337.00;4982530;28;20030;-65
2022/07/11 01:27:10;;;;;;;1.73;1.23;;;;;;;15.82;100.00;99334.28;4988543;28;20065;-65
2022/07/11 01:29:36;;;;;;;2.28;1.40;;;;;;;15.86;100.00;99330.06;4991921;28;20417;-65
2022/07/11 01:32:01;;;;;;;2.25;1.23;;;;;;;15.90;100.00;99334.03;4986773;28;20026;-65
2022/07/11 01:34:26;;;;;;;2.47;1.90;;;;;;;15.89;100.00;99331.50;4989817;28;20030;-65
2022/07/11 01:36:52;;;;;;;2.90;1.35;;;;;;;15.91;100.00;99340.31;4985852;28;20121;-65
2022/07/11 01:39:17;;;;;;;2.30;1.48;;;;;;;15.81;100.00;99331.78;4987685;28;20482;-64
2022/07/11 01:41:43;;;;;;;1.50;1.30;;;;;;;15.86;100.00;99338.25;4991331;28;20068;-65
2022/07/11 01:44:08;;;;;;;4.90;1.63;;;;;;;15.80;100.00;99341.88;4990108;28;20030;-65
2022/07/11 01:46:34;;;;;;;1.40;1.17;;;;;;;15.77;100.00;99336.84;4983120;28;20034;-65
2022/07/11 01:48:59;;;;;;;3.55;1.40;;;;;;;15.72;100.00;99340.28;4991246;28;20022;-65
2022/07/11 01:51:25;;;;;;;2.22;1.30;;;;;;;15.71;100.00;99341.31;4990488;28;20042;-65
2022/07/11 01:53:52;;;;;;;2.72;1.60;;;;;;;15.73;100.00;99343.81;4983697;28;20115;-65
2022/07/11 01:56:17;;;;;;;5.57;1.30;;;;;;;15.72;100.00;99340.28;4989006;28;20022;-65
2022/07/11 01:58:42;;;;;;;2.72;1.40;;;;;;;15.71;100.00;99333.13;4988358;28;20413;-65
2022/07/11 02:01:08;;;;;;;1.70;1.13;;;;;;;15.72;100.00;99331.25;4984191;28;20026;-65
2022/07/11 02:06:10;;;;;;;1.50;1.05;;;;;;;15.84;100.00;99318.53;5031528;23;20112;-72
2022/07/11 02:08:36;;;;;;;1.70;1.33;;;;;;;15.82;100.00;99320.63;5017274;28;20038;-72
2022/07/11 02:11:02;;;;;;;1.40;1.20;;;;;;;15.82;100.00;99319.81;5013314;28;20037;-73
2022/07/11 02:13:27;;;;;;;2.10;1.48;;;;;;;15.86;100.00;99332.78;5017173;28;20038;-73
2022/07/11 02:15:53;;;;;;;2.42;1.60;;;;;;;15.75;100.00;99315.25;5009430;28;20036;-73
2022/07/11 02:18:20;;;;;;;2.13;1.20;;;;;;;15.84;100.00;99325.88;4992342;28;20026;-72
2022/07/11 02:20:45;;;;;;;6.35;1.40;;;;;;;15.81;100.00;99323.63;4996494;28;20025;-72
2022/07/11 02:23:12;;;;;;;4.03;1.52;;;;;;;15.89;100.00;99336.97;4986168;28;20027;-72
2022/07/11 02:25:41;;;;;;;2.22;1.45;;;;;;;15.89;100.00;99337.78;4990620;28;20061;-73
2022/07/11 02:28:10;;;;;;;1.95;1.42;;;;;;;15.84;100.00;99324.00;4990161;28;20026;-72
2022/07/11 02:30:39;;;;;;;;;;;;;;;15.82;100.00;99328.00;4996097;28;20026;-72
2022/07/11 02:33:07;;;;;;;3.65;1.90;;;;;;;15.70;100.00;99336.94;4991947;28;19921;-72
2022/07/11 02:35:33;;;;;;;5.88;1.83;;;;;;;15.73;100.00;99330.19;4992654;28;20030;-73
2022/07/11 02:37:59;;;;;;;2.42;1.55;;;;;;;15.75;100.00;99333.53;4979800;28;20682;-72
2022/07/11 02:40:26;;;;;;;3.40;1.58;;;;;;;15.80;100.00;99339.16;4993929;28;20574;-72
2022/07/11 02:42:51;;;;;;;2.15;1.35;;;;;;;15.80;100.00;99328.25;4989658;28;20085;-72
2022/07/11 02:45:16;;;;;;;1.60;1.20;;;;;;;15.81;100.00;99332.63;4995149;28;20472;-72
2022/07/11 02:47:42;;;;;;;1.63;1.40;;;;;;;15.80;100.00;99338.28;4992745;28;20022;-72
2022/07/11 02:50:09;;;;;;;2.75;1.40;;;;;;;15.78;100.00;99324.91;4990581;28;20550;-72
2022/07/11 02:52:35;;;;;;;1.92;1.20;;;;;;;15.75;100.00;99328.06;4991186;28;20057;-72
2022/07/11 02:55:01;;;;;;;2.95;1.30;;;;;;;15.73;100.00;99333.75;4985950;28;20023;-72
2022/07/11 02:57:26;;;;;;;1.42;1.27;;;;;;;15.69;100.00;99326.22;4988872;28;20512;-72
2022/07/11 02:59:51;;;;;;;1.67;1.38;;;;;;;15.68;100.00;99328.09;4994266;28;20443;-72
2022/07/11 03:02:16;;;;;;;3.03;1.27;;;;;;;15.74;100.00;99340.84;4992210;28;20030;-72
2022/07/11 03:04:42;;;;;;;2.35;1.48;;;;;;;15.65;100.00;99325.00;4988419;28;20037;-72
2022/07/11 03:07:07;;;;;;;3.22;1.50;;;;;;;15.74;100.00;99340.03;4985335;28;20101;-73
2022/07/11 03:09:33;;;;;;;2.60;1.48;;;;;;;15.59;100.00;99318.53;4994673;28;20073;-72
2022/07/11 03:11:58;;;;;;;4.03;1.40;;;;;;;15.76;100.00;99338.75;4992355;28;20030;-72
2022/07/11 03:14:23;;;;;;;2.78;1.60;;;;;;;15.78;100.00;99339.38;4992891;28;20110;-72
2022/07/11 03:16:48;;;;;;;1.92;1.50;;;;;;;15.77;100.00;99340.44;4990682;28;20031;-72
2022/07/11 03:19:14;;;;;;;2.50;1.52;;;;;;;15.66;100.00;99330.19;4993328;28;20030;-72
2022/07/11 03:21:39;;;;;;;1.55;1.17;;;;;;;15.72;100.00;99336.72;4993412;28;20105;-72
2022/07/11 03:24:04;;;;;;;4.45;1.60;;;;;;;15.67;100.00;99326.44;4980930;28;20026;-72
2022/07/11 03:26:30;;;;;;;2.65;1.65;;;;;;;15.70;100.00;99336.09;4979118;28;20472;-72
2022/07/11 03:28:55;;;;;;;2.28;1.58;;;;;;;15.70;100.00;99333.38;4991399;28;20037;-72
2022/07/11 03:31:21;;;;;;;2.45;1.67;;;;;;;15.67;100.00;99334.63;5027183;23;20129;-73
2022/07/11 03:33:46;;;;;;;6.28;2.55;;;;;;;15.52;100.00;99325.94;5013140;28;20054;-72
2022/07/11 03:36:11;;;;;;;1.98;1.40;;;;;;;15.59;100.00;99328.59;5003388;28;20431;-73
2022/07/11 03:38:38;;;;;;;4.05;1.70;;;;;;;15.46;100.00;99305.03;5009707;28;20034;-73
2022/07/11 03:41:03;;;;;;;2.03;1.67;;;;;;;15.62;100.00;99339.06;5010763;28;20034;-73
2022/07/11 03:43:29;;;;;;;4.53;1.70;;;;;;;15.51;100.00;99303.28;5020921;28;20089;-74
2022/07/11 03:45:55;;;;;;;4.00;1.30;;;;;;;15.29;100.00;99272.00;4997622;28;20029;-74
2022/07/11 03:48:21;;;;;;;2.30;1.85;;;;;;;15.64;100.00;99335.06;5008230;28;20505;-73
2022/07/11 03:50:46;;;;;;;5.43;1.88;;;;;;;15.50;100.00;99323.41;5001206;28;20113;-74
2022/07/11 03:53:12;;;;;;;2.50;1.60;;;;;;;15.42;100.00;99323.69;5010703;28;20491;-74
2022/07/11 03:55:37;;;;;;;3.17;1.83;;;;;;;15.38;100.00;99310.72;5002926;28;20026;-72
2022/07/11 03:58:03;;;;;;;2.22;1.75;;;;;;;15.52;100.00;99324.03;4998446;28;20100;-71
2022/07/11 04:00:28;;;;;;;3.00;1.80;;;;;;;15.49;100.00;99318.19;5004171;28;20029;-75
2022/07/11 04:02:53;;;;;;;3.10;1.80;;;;;;;15.56;100.00;99321.69;4999302;28;20076;-73
2022/07/11 04:05:19;;;;;;;2.58;1.75;;;;;;;15.47;100.00;99293.88;5007762;28;20491;-73
2022/07/11 04:07:44;;;;;;;2.00;1.52;;;;;;;15.67;100.00;99318.25;5007980;28;20018;-71
2022/07/11 04:10:10;;;;;;;2.25;1.52;;;;;;;15.71;100.00;99324.13;5012065;28;20026;-73
2022/07/11 04:12:35;;;;;;;2.40;1.70;;;;;;;15.59;100.00;99294.00;5008687;28;20484;-74
2022/07/11 04:15:01;;;;;;;3.38;1.65;;;;;;;15.98;100.00;99331.00;5002493;28;20120;-74
2022/07/11 04:17:27;;;;;;;3.35;1.73;;;;;;;15.79;100.00;99310.19;5011386;28;20029;-74
2022/07/11 04:19:53;;;;;;;3.72;1.80;;;;;;;15.85;100.00;99322.94;5012561;28;20034;-74
2022/07/11 04:22:18;;;;;;;1.90;1.55;;;;;;;15.88;100.00;99316.22;5011764;28;20033;-74
2022/07/11 04:24:43;;;;;;;2.67;1.95;;;;;;;16.00;100.00;99330.75;5000685;28;20475;-74
2022/07/11 04:27:09;;;;;;;2.03;1.60;;;;;;;15.91;100.00;99304.84;4994012;28;20061;-74
2022/07/11 04:29:34;;;;;;;4.63;1.77;;;;;;;16.07;100.00;99311.59;5012027;28;20018;-73
2022/07/11 04:31:59;;;;;;;2.47;1.60;;;;;;;16.20;100.00;99314.16;5009547;28;20033;-74
2022/07/11 04:34:25;;;;;;;3.42;1.52;;;;;;;16.25;100.00;99317.06;5007342;28;20037;-74
2022/07/11 04:36:50;;;;;;;5.20;2.10;;;;;;;16.32;100.00;99320.56;5006755;28;20116;-74
2022/07/11 04:39:15;;;;;;;4.75;2.00;;;;;;;16.14;100.00;99293.25;5002935;28;20069;-74
2022/07/11 04:41:40;;;;;;;4.35;1.67;;;;;;;16.46;100.00;99332.16;5011772;28;20119;-74
2022/07/11 04:44:06;;;;;;;5.10;2.08;;;;;;;16.49;100.00;99307.09;5005074;28;20026;-74
2022/07/11 04:46:31;;;;;;;3.00;1.85;;;;;;;16.48;100.00;99320.97;5007520;28;20014;-74
2022/07/11 04:48:57;;;;;;;3.78;1.55;;;;;;;16.37;100.00;99312.50;4995272;28;20101;-74
2022/07/11 04:51:24;;;;;;;2.65;1.70;;;;;;;16.66;100.00;99334.59;5012765;28;20029;-72
2022/07/11 04:53:49;;;;;;;2.38;1.58;;;;;;;16.49;100.00;99309.81;5001997;28;20039;-72
2022/07/11 04:56:15;;;;;;;2.60;1.58;;;;;;;16.62;100.00;99331.50;5004800;28;20187;-73
2022/07/11 04:58:40;;;;;;;2.47;1.98;;;;;;;16.67;100.00;99339.03;4997995;28;20030;-68
2022/07/11 05:01:06;;;;;;;1.95;1.30;;;;;;;16.69;100.00;99311.44;5014838;28;20041;-68
2022/07/11 05:03:34;;;;;;;2.63;1.55;;;;;;;16.94;100.00;99344.16;4995766;28;20026;-71
2022/07/11 05:06:00;;;;;;;1.70;1.50;;;;;;;17.05;100.00;99341.47;5004842;28;20029;-66
2022/07/11 05:08:26;;;;;;;2.35;1.38;;;;;;;17.15;100.00;99345.53;5000242;28;20037;-71
2022/07/11 05:10:51;;;;;;;2.20;1.67;;;;;;;17.06;100.00;99324.00;4998772;28;20019;-70
2022/07/11 05:13:17;;;;;;;2.22;1.67;;;;;;;17.32;100.00;99343.81;5006514;28;20030;-67
2022/07/11 05:15:42;;;;;;;2.83;1.40;;;;;;;17.37;100.00;99343.97;5001915;28;20026;-67
2022/07/11 05:18:07;;;;;;;3.45;1.77;;;;;;;17.42;100.00;99351.44;4996610;28;20034;-67
2022/07/11 05:20:33;;;;;;;2.75;1.75;;;;;;;17.27;97.37;99327.28;4995414;28;20017;-68
2022/07/11 05:22:58;;;;;;;3.15;1.73;;;;;;;17.31;98.07;99336.66;4999026;28;20493;-67
2022/07/11 05:25:24;;;;;;;2.83;1.40;;;;;;;17.39;97.96;99333.59;5001732;28;20025;-68
2022/07/11 05:27:50;;;;;;;7.57;1.55;;;;;;;17.54;97.83;99349.56;4994263;28;21212;-68
2022/07/11 05:30:15;;;;;;;2.75;1.80;;;;;;;17.55;94.75;99361.34;4999511;28;20034;-66
2022/07/11 05:32:41;;;;;;;3.63;1.63;;;;;;;17.61;93.15;99360.41;5002587;28;20034;-65
2022/07/11 05:35:06;;;;;;;3.42;1.80;;;;;;;17.74;91.95;99357.44;5006836;28;20026;-66
2022/07/11 05:37:32;;;;;;;4.57;1.80;;;;;;;17.69;88.50;99355.41;5003386;28;20104;-65
2022/07/11 05:39:57;;;;;;;2.38;1.45;;;;;;;17.86;85.96;99354.75;5004216;28;20046;-65
2022/07/11 05:42:22;;;;;;;3.28;1.80;;;;;;;17.81;85.02;99365.56;5007505;28;20026;-65
2022/07/11 05:44:49;;;;;;;3.80;1.60;;;;;;;17.73;87.29;99347.56;5004088;28;20030;-65
2022/07/11 05:47:14;;;;;;;3.00;1.98;;;;;;;18.09;84.48;99362.13;5004593;28;20018;-66
2022/07/11 05:49:40;;;;;;;2.17;1.58;;;;;;;18.29;81.65;99368.06;5002771;28;20076;-65
2022/07/11 05:52:05;;;;;;;2.92;1.80;;;;;;;18.40;78.21;99355.44;5009845;28;20034;-65
2022/07/11 05:54:30;;;;;;;1.70;1.60;;;;;;;18.35;79.55;99363.53;5007953;28;20044;-65
2022/07/11 05:56:56;;;;;;;3.38;1.67;;;;;;;18.42;82.70;99367.00;5006230;28;20034;-65
2022/07/11 05:59:21;;;;;;;2.55;1.58;;;;;;;18.62;80.34;99367.41;5001979;28;20028;-65
2022/07/11 06:01:47;;;;;;;4.43;1.75;;;;;;;18.62;78.79;99355.59;5006149;28;20124;-66
2022/07/11 06:04:12;;;;;;;3.13;1.83;;;;;;;18.97;75.15;99363.75;5001041;28;20018;-65
2022/07/11 06:06:38;;;;;;;2.15;1.85;;;;;;;18.95;75.93;99346.72;5006958;28;20022;-65
2022/07/11 06:09:04;;;;;;;2.30;1.50;;;;;;;19.20;75.66;99354.59;5009099;28;20426;-66
2022/07/11 06:11:29;;;;;;;3.72;1.80;;;;;;;19.04;74.19;99358.13;5006464;28;20106;-65
2022/07/11 06:13:55;;;;;;;4.82;1.77;;;;;;;19.04;72.99;99323.28;5009221;28;20073;-65
2022/07/11 06:16:20;;;;;;;2.92;1.95;;;;;;;19.38;69.57;99325.25;5002903;28;20498;-66
2022/07/11 06:18:46;;;;;;;3.42;1.73;;;;;;;19.54;69.27;99345.56;5005344;28;20042;-65
2022/07/11 06:21:12;;;;;;;2.13;1.80;;;;;;;19.43;69.40;99348.13;5004986;28;20109;-66
2022/07/11 06:23:37;;;;;;;2.65;1.70;;;;;;;19.61;67.79;99351.72;5003518;28;20026;-65
2022/07/11 06:26:03;;;;;;;3.45;1.92;;;;;;;19.75;67.63;99347.59;5001588;28;20061;-65
2022/07/11 06:28:29;;;;;;;4.47;1.52;;;;;;;20.01;67.73;99348.00;5003520;28;20081;-65
2022/07/11 06:30:55;;;;;;;3.22;1.50;;;;;;;20.32;66.68;99344.59;5010635;28;20049;-65
2022/07/11 06:33:21;;;;;;;4.13;1.65;;;;;;;20.87;63.34;99351.09;5004523;28;20026;-65
2022/07/11 06:35:47;;;;;;;2.80;1.40;;;;;;;20.66;62.23;99346.44;5007639;28;20040;-66
2022/07/11 06:38:13;;;;;;;2.03;1.60;;;;;;;20.60;63.07;99358.47;5008386;28;20041;-66
2022/07/11 06:40:40;;;;;;;2.28;1.45;;;;;;;21.31;61.13;99355.69;5006014;28;20083;-66
2022/07/11 06:43:06;;;;;;;2.03;1.42;;;;;;;21.59;59.92;99354.63;5011696;28;20427;-66
2022/07/11 06:45:31;;;;;;;2.25;1.90;;;;;;;21.50;59.79;99336.91;5001809;28;20030;-66
2022/07/11 06:47:57;;;;;;;3.47;1.52;;;;;;;21.88;58.23;99357.88;5012505;28;20052;-66
2022/07/11 06:50:22;;;;;;;2.42;1.60;;;;;;;21.80;58.81;99359.19;5007930;28;20113;-67
2022/07/11 06:52:47;;;;;;;3.05;1.60;;;;;;;21.73;58.96;99357.75;5010599;28;20026;-66
2022/07/11 06:55:13;;;;;;;1.63;1.35;;;;;;;21.72;59.69;99362.44;5007116;28;20539;-67
2022/07/11 06:57:39;;;;;;;1.40;1.30;;;;;;;21.53;59.65;99359.22;5002025;28;20441;-67
2022/07/11 07:00:07;;;;;;;3.85;1.52;;;;;;;21.38;58.90;99359.09;4997120;28;20049;-66
2022/07/11 07:02:32;;;;;;;2.17;1.45;;;;;;;21.48;58.90;99339.91;4994567;28;20594;-66
2022/07/11 07:04:58;;;;;;;1.98;1.30;;;;;;;21.56;58.15;99344.94;5004823;28;20022;-67
2022/07/11 07:07:24;;;;;;;4.57;1.30;;;;;;;21.88;57.14;99355.94;5020739;28;20033;-67
2022/07/11 07:09:49;;;;;;;3.85;1.13;;;;;;;22.78;56.03;99351.50;5014249;28;20018;-66
2022/07/11 07:12:14;;;;;;;1.48;0.82;;;;;;;23.24;53.88;99338.72;5004153;28;20038;-66
2022/07/11 07:14:40;;;;;;;1.27;1.08;;;;;;;23.52;52.42;99350.31;5002102;28;20035;-66
2022/07/11 07:17:06;;;;;;;1.85;1.00;;;;;;;23.40;51.48;99350.59;4997416;28;20034;-66
2022/07/11 07:19:31;;;;;;;1.90;1.02;;;;;;;22.93;52.42;99355.16;5014230;28;20030;-66
2022/07/11 07:21:56;;;;;;;1.10;1.00;;;;;;;22.76;52.27;99335.22;5014326;28;20021;-67
2022/07/11 07:24:21;;;;;;;2.15;1.20;;;;;;;22.71;53.27;99358.09;5008790;28;20019;-67
2022/07/11 07:26:47;;;;;;;2.45;1.00;;;;;;;23.17;52.13;99352.75;4997831;28;20381;-67
2022/07/11 07:29:12;;;;;;;1.10;0.95;;;;;;;23.68;51.67;99357.50;4999522;28;20034;-67
2022/07/11 07:31:37;;;;;;;1.30;0.93;;;;;;;23.45;51.21;99335.94;5026781;28;20033;-67
2022/07/11 07:34:02;;;;;;;1.48;1.13;;;;;;;24.09;49.69;99362.22;5015273;28;20030;-67
2022/07/11 07:36:28;;;;;;;3.55;1.13;;;;;;;24.67;48.38;99349.63;4997068;28;20080;-67
2022/07/11 07:38:53;;;;;;;1.30;0.95;;;;;;;24.96;49.40;99351.72;5011048;28;20399;-67
2022/07/11 07:41:19;;;;;;;1.58;0.88;;;;;;;25.48;47.97;99350.31;5004070;28;20034;-67
2022/07/11 07:43:45;;;;;;;0.95;0.63;;;;;;;26.34;45.82;99350.66;5011714;28;20024;-66
2022/07/11 07:46:11;;;;;;;2.25;0.60;;;;;;;27.09;43.27;99346.41;5007734;28;20365;-67
2022/07/11 07:48:37;;;;;;;0.90;0.60;;;;;;;28.38;40.85;99340.44;5020026;28;20040;-67
2022/07/11 07:51:04;;;;;;;0.80;0.57;;;;;;;29.63;38.31;99341.94;5029373;28;20079;-67
2022/07/11 07:53:29;;;;;;;3.00;0.80;;;;;;;28.99;38.62;99336.41;5019209;28;20049;-67
2022/07/11 07:55:54;;;;;;;0.77;0.50;;;;;;;30.08;37.31;99339.13;5002448;28;20149;-67
2022/07/11 07:58:19;;;;;;;2.13;1.00;;;;;;;30.63;36.85;99337.06;5011828;28;20117;-67
2022/07/11 08:03:30;;;;;;;0.88;0.73;;;;;;;29.76;37.20;99323.47;5003333;28;20394;-67
2022/07/11 08:05:56;;;;;;;1.20;0.60;;;;;;;29.20;39.44;99333.19;5014956;28;20030;-67
2022/07/11 08:08:21;;;;;;;3.92;1.13;;;;;;;29.72;37.59;99311.34;5003569;28;20030;-67
2022/07/11 08:10:46;;;;;;;1.95;1.20;;;;;;;30.84;35.10;99334.53;4999503;28;20057;-67
2022/07/11 08:13:12;;;;;;;2.50;0.80;;;;;;;30.09;36.62;99334.34;4993682;28;20439;-67
2022/07/11 08:15:37;;;;;;;2.03;0.88;;;;;;;33.75;32.71;99324.19;5003718;28;20022;-67
2022/07/11 08:18:03;;;;;;;2.05;0.85;;;;;;;35.22;29.89;99336.78;5012937;28;20025;-67
2022/07/11 08:20:28;;;;;;;1.05;0.70;;;;;;;34.41;31.36;99336.53;5013180;28;20022;-67
2022/07/11 08:23:03;;;;;;;5.07;0.77;;;;;;;33.98;30.70;99326.56;5013203;28;20387;-67
2022/07/11 08:25:32;;;;;;;1.40;0.80;;;;;;;34.16;30.46;99333.66;5000343;28;20018;-67
2022/07/11 08:27:57;;;;;;;4.78;0.77;;;;;;;35.37;29.51;99330.41;4994172;28;20025;-68
2022/07/11 08:30:22;;;;;;;2.30;0.63;;;;;;;31.10;33.98;99329.84;5007600;28;20034;-67
2022/07/11 08:32:48;;;;;;;1.17;0.70;;;;;;;30.76;34.81;99317.41;5011880;28;20074;-67
2022/07/11 08:35:16;;;;;;;4.90;0.70;;;;;;;31.85;34.29;99326.84;5011881;28;20033;-67
2022/07/11 08:37:42;;;;;;;1.05;0.70;;;;;;;33.07;32.14;99315.19;5013751;28;20017;-67
2022/07/11 08:40:08;;;;;;;1.20;0.70;;;;;;;32.88;31.94;99310.84;5010624;28;20034;-67
2022/07/11 08:42:39;;;;;;;2.30;0.90;;;;;;;33.10;32.44;99306.91;5012702;28;20105;-67
2022/07/11 08:45:05;;;;;;;1.05;0.93;;;;;;;28.69;38.42;99328.69;5009828;28;20037;-67
2022/07/11 08:47:31;;;;;;;1.70;0.93;;;;;;;27.93;39.46;99315.97;5002678;28;20026;-67
2022/07/11 08:49:58;;;;;;;1.35;0.70;;;;;;;26.27;42.61;99321.63;5003051;28;20148;-67
2022/07/11 08:52:23;;;;;;;1.50;0.90;;;;;;;26.32;43.21;99314.06;4997986;28;20125;-67
2022/07/11 08:54:49;;;;;;;1.58;0.80;;;;;;;26.20;43.33;99305.34;5005460;28;20475;-67
2022/07/11 08:57:15;;;;;;;1.40;0.70;;;;;;;27.82;42.06;99317.25;5004057;28;20030;-67
2022/07/11 08:59:42;;;;;;;1.75;0.90;;;;;;;29.90;37.27;99318.66;5006140;28;20068;-73
2022/07/11 09:02:09;;;;;;;1.98;1.00;;;;;;;31.36;34.54;99317.81;5001869;28;20041;-67
2022/07/11 09:04:34;;;;;;;1.63;0.90;;;;;;;31.42;33.95;99311.78;5002938;28;20033;-65
2022/07/11 09:07:01;;;;;;;2.70;1.13;;;;;;;30.60;35.16;99307.81;5001874;28;20383;-68
2022/07/11 09:09:28;;;;;;;2.03;0.90;;;;;;;28.33;38.57;99305.19;5001625;28;20504;-67
2022/07/11 09:11:55;;;;;;;1.25;0.90;;;;;;;26.87;42.24;99314.50;4995464;28;20037;-68
2022/07/11 09:14:29;;;;;;;3.22;1.00;;;;;;;26.29;44.12;99309.13;5003114;28;20026;-67
2022/07/11 09:16:58;;;;;;;1.27;0.90;;;;;;;25.45;45.73;99319.59;4999707;28;20049;-67
2022/07/11 09:19:26;;;;;;;0.85;0.70;;;;;;;24.96;46.92;99320.44;5003019;28;20399;-68
2022/07/11 09:27:42;;;;;;;1.00;0.90;;;;;;;26.95;42.41;99320.53;4999059;28;20041;-70
2022/07/11 09:32:51;;;;;;;1.92;1.20;;;;;;;28.33;40.05;99305.19;5009706;23;20108;-71
2022/07/11 09:35:16;;;;;;;2.00;0.90;;;;;;;28.07;40.30;99302.06;4992327;28;20041;-78
2022/07/11 09:37:43;;;;;;;2.03;1.20;;;;;;;26.34;42.08;99328.47;5002843;28;20018;-69
2022/07/11 09:40:12;;;;;;;2.13;1.00;;;;;;;26.21;43.97;99312.53;4994114;28;20038;-72
2022/07/11 09:42:52;;;;;;;3.65;1.00;;;;;;;27.62;40.86;99306.50;4980192;28;20023;-77
2022/07/11 09:45:19;;;;;;;1.05;0.90;;;;;;;26.19;42.16;99312.81;4961333;28;20027;-69
2022/07/11 09:47:49;;;;;;;3.17;0.80;;;;;;;27.53;41.18;99309.94;4969223;28;20110;-68
2022/07/11 09:50:29;;;;;;;0.98;0.75;;;;;;;28.05;40.32;99315.47;4965624;28;20027;-68
2022/07/11 09:53:16;;;;;;;2.80;0.80;;;;;;;27.77;40.18;99317.31;4961603;28;20109;-68
2022/07/11 09:55:46;;;;;;;2.47;0.95;;;;;;;27.58;40.92;99317.38;4966327;28;20041;-68
2022/07/11 09:58:16;;;;;;;1.10;0.80;;;;;;;27.90;40.78;99312.97;4961066;28;20031;-68
2022/07/11 10:00:43;;;;;;;1.58;0.90;;;;;;;27.88;40.05;99315.25;4960336;28;20076;-68
2022/07/11 10:03:10;;;;;;;1.13;0.90;;;;;;;27.76;39.78;99310.94;4973967;28;20027;-68
2022/07/11 10:05:36;;;;;;;3.05;1.10;;;;;;;28.75;39.22;99289.31;4963140;28;20074;-70
2022/07/11 10:08:03;;;;;;;1.90;0.80;;;;;;;29.15;37.75;99306.25;4962483;28;20472;-68
2022/07/11 10:10:30;;;;;;;1.73;1.05;;;;;;;29.65;37.40;99313.75;4962786;28;20033;-68
2022/07/11 10:12:56;;;;;;;2.70;0.80;;;;;;;29.94;37.09;99304.88;4968005;28;20473;-68
2022/07/11 10:15:32;;;;;;;1.30;0.85;;;;;;;30.01;36.70;99296.91;4966190;28;20027;-68
2022/07/11 10:18:24;;;;;;;1.17;0.75;;;;;;;29.90;35.66;99310.28;4966035;28;20019;-70
2022/07/11 10:21:09;;;;;;;3.70;0.93;;;;;;;30.57;35.44;99309.28;4964638;28;20485;-70
2022/07/11 10:23:57;;;;;;;6.53;0.88;;;;;;;30.49;35.64;99314.84;4961983;28;20476;-70
2022/07/11 10:26:54;;;;;;;2.08;0.80;;;;;;;29.16;37.48;99315.44;4965780;28;20034;-70
2022/07/11 10:29:50;;;;;;;0.80;0.70;;;;;;;28.40;38.92;99310.34;4967472;28;20110;-70
2022/07/11 10:32:16;;;;;;;1.77;0.80;;;;;;;27.53;40.51;99325.78;4964498;28;20133;-70
2022/07/11 10:34:41;;;;;;;1.00;0.80;;;;;;;26.86;42.21;99329.53;4970970;28;20034;-70
2022/07/11 10:37:08;;;;;;;2.38;1.20;;;;;;;26.63;42.48;99322.06;4968987;28;20035;-70
2022/07/11 10:39:35;;;;;;;1.15;0.82;;;;;;;26.91;41.72;99327.78;4967660;28;20030;-70
2022/07/11 10:42:03;;;;;;;1.98;0.82;;;;;;;26.94;41.67;99318.88;4971843;28;20481;-70
2022/07/11 10:44:49;;;;;;;1.77;0.80;;;;;;;26.95;42.11;99324.13;4971862;28;20105;-70
2022/07/11 10:47:35;;;;;;;2.55;1.02;;;;;;;26.89;41.99;99328.94;4966500;28;20073;-70
2022/07/11 10:50:10;;;;;;;1.30;0.90;;;;;;;26.40;42.46;99324.50;4968561;28;20082;-70
2022/07/11 10:52:36;;;;;;;2.15;1.02;;;;;;;26.41;43.21;99323.41;4978477;28;20023;-70
2022/07/11 10:55:26;;;;;;;1.77;0.82;;;;;;;26.83;42.43;99324.59;4963016;28;20062;-70
2022/07/11 10:58:06;;;;;;;1.92;0.90;;;;;;;26.23;43.12;99321.41;4966406;28;20033;-70
2022/07/11 11:00:32;;;;;;;1.67;0.80;;;;;;;27.06;42.05;99316.47;4960248;28;20030;-70
2022/07/11 11:03:08;;;;;;;3.17;0.90;;;;;;;27.21;41.79;99304.34;4966819;28;21056;-70
2022/07/11 11:05:52;;;;;;;1.05;0.88;;;;;;;26.97;41.48;99312.72;4966583;28;20049;-70
2022/07/11 11:08:43;;;;;;;2.80;1.00;;;;;;;27.32;41.50;99309.44;4962828;28;20779;-70
2022/07/11 11:11:23;;;;;;;2.28;0.88;;;;;;;27.52;39.97;99316.63;4966007;28;20654;-70
2022/07/11 11:14:17;;;;;;;1.50;1.00;;;;;;;26.44;41.88;99320.03;4964353;28;20055;-70
2022/07/11 11:16:43;;;;;;;3.10;1.00;;;;;;;26.79;41.59;99329.06;4964991;28;20085;-70
2022/07/11 11:19:47;;;;;;;1.52;1.00;;;;;;;26.74;41.89;99314.44;4965597;28;20026;-70
2022/07/11 11:22:14;;;;;;;2.45;0.90;;;;;;;26.39;41.91;99303.44;4967376;28;20046;-70
2022/07/11 11:24:40;;;;;;;1.40;1.00;;;;;;;26.38;42.65;99315.69;4964139;28;20026;-70
2022/07/11 11:27:16;;;;;;;2.28;1.13;;;;;;;26.40;42.62;99309.81;4966465;28;20400;-70
2022/07/11 11:29:42;;;;;;;2.88;1.02;;;;;;;26.61;43.21;99305.69;4963025;28;20185;-70
2022/07/11 11:32:08;;;;;;;5.15;1.23;;;;;;;27.19;42.32;99303.81;4966665;28;20034;-70
2022/07/11 11:34:33;;;;;;;2.63;0.98;;;;;;;27.24;42.24;99284.31;4964198;28;20039;-70
2022/07/11 11:37:01;;;;;;;2.67;1.30;;;;;;;28.04;40.49;99299.09;4962616;28;20097;-70
2022/07/11 11:39:33;;;;;;;2.67;1.20;;;;;;;28.47;39.15;99302.44;4964977;28;20033;-70
2022/07/11 11:42:11;;;;;;;2.22;1.00;;;;;;;29.22;38.17;99291.91;4966794;28;20298;-70
2022/07/11 11:44:49;;;;;;;3.90;1.00;;;;;;;31.09;35.32;99296.59;4963449;28;20034;-70
2022/07/11 11:47:14;;;;;;;6.75;0.93;;;;;;;31.35;34.80;99271.44;4965813;28;20309;-70